createdAt,value
2019-04-07T00:00:37.388Z,27.50
2019-04-07T00:03:08.600Z,27.03
2019-04-07T00:05:40.012Z,24.27
2019-04-07T00:08:11.194Z,27.67
2019-04-07T00:10:42.499Z,26.67
2019-04-07T00:13:13.895Z,29.23
2019-04-07T00:15:45.229Z,27.13
2019-04-07T00:18:16.859Z,27.00
2019-04-07T00:20:48.498Z,27.03
2019-04-07T00:23:20.054Z,30.93
2019-04-07T00:25:51.659Z,28.87
2019-04-07T00:28:22.803Z,27.43
2019-04-07T00:30:54.110Z,28.43
2019-04-07T00:33:25.665Z,25.37
2019-04-07T00:35:56.931Z,27.23
2019-04-07T00:38:28.504Z,26.90
2019-04-07T00:40:59.468Z,27.77
2019-04-07T00:43:31.747Z,29.13
2019-04-07T00:46:03.501Z,25.97
2019-04-07T00:48:36.444Z,23.27
2019-04-07T00:51:07.838Z,25.43
2019-04-07T00:53:39.326Z,25.63
2019-04-07T00:56:10.624Z,27.00
2019-04-07T00:58:42.529Z,25.90
2019-04-07T01:01:16.448Z,25.03
2019-04-07T01:03:48.183Z,26.07
2019-04-07T01:06:19.641Z,26.97
2019-04-07T01:08:50.538Z,27.20
2019-04-07T01:11:21.606Z,29.00
2019-04-07T01:13:52.940Z,26.63
2019-04-07T01:16:25.221Z,31.03
2019-04-07T01:18:56.940Z,31.10
2019-04-07T01:21:28.105Z,33.47
2019-04-07T01:23:59.526Z,35.17
2019-04-07T01:26:30.463Z,32.23
2019-04-07T01:29:01.606Z,34.37
2019-04-07T01:31:32.978Z,32.10
2019-04-07T01:34:04.792Z,33.47
2019-04-07T01:36:35.722Z,31.53
2019-04-07T01:39:10.288Z,31.17
2019-04-07T01:41:56.302Z,31.67
2019-04-07T01:44:42.053Z,29.47
2019-04-07T01:47:27.677Z,27.80
2019-04-07T01:50:10.955Z,30.53
2019-04-07T01:53:02.536Z,29.70
2019-04-07T01:55:56.739Z,27.23
2019-04-07T01:58:44.609Z,28.33
2019-04-07T02:01:34.832Z,24.07
2019-04-07T02:04:23.720Z,24.20
2019-04-07T02:07:13.984Z,32.70
2019-04-07T02:10:03.355Z,29.67
2019-04-07T02:12:52.086Z,32.67
2019-04-07T02:15:29.482Z,31.33
2019-04-07T02:18:09.173Z,31.10
2019-04-07T02:20:59.735Z,29.67
2019-04-07T02:23:41.383Z,28.77
2019-04-07T02:26:22.381Z,28.93
2019-04-07T02:29:11.673Z,27.07
2019-04-07T02:31:52.492Z,27.77
2019-04-07T02:34:32.785Z,27.70
2019-04-07T02:37:19.307Z,24.67
2019-04-07T02:40:11.716Z,23.30
2019-04-07T02:42:48.335Z,24.17
2019-04-07T02:45:36.622Z,28.80
2019-04-07T02:48:26.929Z,27.10
2019-04-07T02:51:16.095Z,29.53
2019-04-07T02:54:10.811Z,28.10
2019-04-07T02:57:10.181Z,28.20
2019-04-07T02:59:51.562Z,30.00
2019-04-07T03:02:46.258Z,28.43
2019-04-07T03:05:40.534Z,26.50
2019-04-07T03:08:27.032Z,27.73
2019-04-07T03:11:18.034Z,26.10
2019-04-07T03:13:55.444Z,27.10
2019-04-07T03:16:41.911Z,26.53
2019-04-07T03:19:29.889Z,26.30
2019-04-07T03:22:26.032Z,27.20
2019-04-07T03:25:06.534Z,26.80
2019-04-07T03:27:49.134Z,26.13
2019-04-07T03:30:45.409Z,27.10
2019-04-07T03:33:23.627Z,23.83
2019-04-07T03:36:18.569Z,26.53
2019-04-07T03:39:03.459Z,26.63
2019-04-07T03:41:40.506Z,28.27
2019-04-07T03:44:34.401Z,28.80
2019-04-07T03:47:12.756Z,28.53
2019-04-07T03:50:16.274Z,26.00
2019-04-07T03:52:56.818Z,24.37
2019-04-07T03:55:46.745Z,20.23
2019-04-07T03:58:37.775Z,19.33
2019-04-07T04:01:28.550Z,19.03
2019-04-07T04:04:23.048Z,21.53
2019-04-07T04:07:22.376Z,20.43
2019-04-07T04:10:17.852Z,20.90
2019-04-07T04:12:56.317Z,22.70
2019-04-07T04:15:33.668Z,25.77
2019-04-07T04:18:05.461Z,27.50
2019-04-07T04:20:37.254Z,27.07
2019-04-07T04:23:08.988Z,25.73
2019-04-07T04:25:40.726Z,26.13
2019-04-07T04:28:12.104Z,26.67
2019-04-07T04:30:44.055Z,27.73
2019-04-07T04:33:15.933Z,27.03
2019-04-07T04:35:47.020Z,26.93
2019-04-07T04:38:18.153Z,27.33
2019-04-07T04:40:49.375Z,27.07
2019-04-07T04:43:20.448Z,25.60
2019-04-07T04:45:53.242Z,25.10
2019-04-07T04:48:24.347Z,25.37
2019-04-07T04:50:56.064Z,25.77
2019-04-07T04:53:29.007Z,25.07
2019-04-07T04:56:00.973Z,26.40
2019-04-07T04:58:32.486Z,28.60
2019-04-07T05:01:04.481Z,26.57
2019-04-07T05:03:36.188Z,27.00
2019-04-07T05:06:07.850Z,26.00
2019-04-07T05:08:39.213Z,25.70
2019-04-07T05:11:10.541Z,27.33
2019-04-07T05:13:42.175Z,26.10
2019-04-07T05:16:13.139Z,26.63
2019-04-07T05:18:44.954Z,25.43
2019-04-07T05:21:16.447Z,24.37
2019-04-07T05:23:48.051Z,25.50
2019-04-07T05:26:20.144Z,26.20
2019-04-07T05:28:51.186Z,25.70
2019-04-07T05:31:22.468Z,22.73
2019-04-07T05:33:54.248Z,23.67
2019-04-07T05:36:25.219Z,25.37
2019-04-07T05:38:57.443Z,24.87
2019-04-07T05:41:29.615Z,23.43
2019-04-07T05:44:01.344Z,22.67
2019-04-07T05:46:32.655Z,22.00
2019-04-07T05:49:03.546Z,23.00
2019-04-07T05:51:34.707Z,26.90
2019-04-07T05:54:05.933Z,24.37
2019-04-07T05:56:37.986Z,26.63
2019-04-07T05:59:11.655Z,28.63
2019-04-07T06:01:42.014Z,30.17
2019-04-07T06:04:16.975Z,30.60
2019-04-07T06:06:46.292Z,29.57
2019-04-07T06:09:19.033Z,29.33
2019-04-07T06:11:50.174Z,30.03
2019-04-07T06:14:21.744Z,30.40
2019-04-07T06:16:55.382Z,30.20
2019-04-07T06:19:26.042Z,32.03
2019-04-07T06:21:57.946Z,31.97
2019-04-07T06:24:31.633Z,33.80
2019-04-07T06:27:02.064Z,34.70
2019-04-07T06:29:33.404Z,35.87
2019-04-07T06:32:05.546Z,34.37
2019-04-07T06:34:41.102Z,33.53
2019-04-07T06:37:10.587Z,33.13
2019-04-07T06:39:41.738Z,32.73
2019-04-07T06:42:14.287Z,31.27
2019-04-07T06:44:45.792Z,32.03
2019-04-07T06:47:23.812Z,30.07
2019-04-07T06:50:15.725Z,30.17
2019-04-07T06:53:15.797Z,27.97
2019-04-07T06:56:05.999Z,27.90
2019-04-07T06:58:50.348Z,27.43
2019-04-07T07:01:29.749Z,27.20
2019-04-07T07:04:15.728Z,26.93
2019-04-07T07:07:07.087Z,26.83
2019-04-07T07:10:06.289Z,26.30
2019-04-07T07:13:00.977Z,28.37
2019-04-07T07:15:50.770Z,25.93
2019-04-07T07:18:28.338Z,25.03
2019-04-07T07:21:24.143Z,26.60
2019-04-07T07:23:55.821Z,25.27
2019-04-07T07:26:28.318Z,25.50
2019-04-07T07:28:59.695Z,23.70
2019-04-07T07:31:30.890Z,23.50
2019-04-07T07:34:02.832Z,24.77
2019-04-07T07:36:34.070Z,24.57
2019-04-07T07:39:10.284Z,23.73
2019-04-07T07:41:40.985Z,23.53
2019-04-07T07:44:12.295Z,23.63
2019-04-07T07:46:43.227Z,23.67
2019-04-07T07:49:14.797Z,24.07
2019-04-07T07:51:48.553Z,24.00
2019-04-07T07:54:18.738Z,24.90
2019-04-07T07:56:51.371Z,21.83
2019-04-07T07:59:22.614Z,23.67
2019-04-07T08:01:53.562Z,21.90
2019-04-07T08:04:26.413Z,23.23
2019-04-07T08:06:57.932Z,21.63
2019-04-07T08:09:28.891Z,22.10
2019-04-07T08:12:01.635Z,21.20
2019-04-07T08:14:32.937Z,22.07
2019-04-07T08:17:04.160Z,22.13
2019-04-07T08:19:35.327Z,22.70
2019-04-07T08:22:07.733Z,22.07
2019-04-07T08:24:38.934Z,23.60
2019-04-07T08:27:10.607Z,23.60
2019-04-07T08:29:41.776Z,22.43
2019-04-07T08:32:13.278Z,22.63
2019-04-07T08:34:44.955Z,22.80
2019-04-07T08:37:16.427Z,22.73
2019-04-07T08:39:47.543Z,22.27
2019-04-07T08:42:19.830Z,24.50
2019-04-07T08:44:52.302Z,22.83
2019-04-07T08:47:23.559Z,22.90
2019-04-07T08:49:56.899Z,23.63
2019-04-07T08:52:27.287Z,22.27
2019-04-07T08:54:58.686Z,22.27
2019-04-07T08:57:31.261Z,22.00
2019-04-07T09:00:02.987Z,23.00
2019-04-07T09:02:34.923Z,22.97
2019-04-07T09:05:06.639Z,22.30
2019-04-07T09:07:38.075Z,23.20
2019-04-07T09:10:18.867Z,23.03
2019-04-07T09:12:49.981Z,22.43
2019-04-07T09:15:43.046Z,22.87
2019-04-07T09:18:19.136Z,22.57
2019-04-07T09:21:12.189Z,22.07
2019-04-07T09:23:50.611Z,23.03
2019-04-07T09:26:45.694Z,22.77
2019-04-07T09:29:37.651Z,22.47
2019-04-07T09:32:25.896Z,23.57
2019-04-07T09:35:16.657Z,21.60
2019-04-07T09:37:56.352Z,21.23
2019-04-07T09:40:34.612Z,20.20
2019-04-07T09:43:25.192Z,21.67
2019-04-07T09:46:15.256Z,21.57
2019-04-07T09:49:11.778Z,20.50
2019-04-07T09:52:02.828Z,22.47
2019-04-07T09:54:59.117Z,21.83
2019-04-07T09:57:54.958Z,21.23
2019-04-07T10:00:49.115Z,20.77
2019-04-07T10:03:38.685Z,21.70
2019-04-07T10:06:28.987Z,21.60
2019-04-07T10:09:23.289Z,20.57
2019-04-07T10:12:19.680Z,21.50
2019-04-07T10:15:02.009Z,19.93
2019-04-07T10:17:55.461Z,20.03
2019-04-07T10:20:35.836Z,18.77
2019-04-07T10:23:30.036Z,20.57
2019-04-07T10:26:18.968Z,18.03
2019-04-07T10:28:57.250Z,17.80
2019-04-07T10:31:44.190Z,17.53
2019-04-07T10:34:35.459Z,18.77
2019-04-07T10:37:14.551Z,17.47
2019-04-07T10:39:59.263Z,15.63
2019-04-07T10:42:59.690Z,16.87
2019-04-07T10:45:41.771Z,15.50
2019-04-07T10:48:38.089Z,15.10
2019-04-07T10:51:31.991Z,16.53
2019-04-07T10:54:14.679Z,15.90
2019-04-07T10:57:05.110Z,15.90
2019-04-07T10:59:49.295Z,15.10
2019-04-07T11:02:39.337Z,15.27
2019-04-07T11:05:28.458Z,15.13
2019-04-07T11:08:18.271Z,13.07
2019-04-07T11:11:07.905Z,15.87
2019-04-07T11:13:51.624Z,13.97
2019-04-07T11:16:40.857Z,12.70
2019-04-07T11:19:42.278Z,12.77
2019-04-07T11:22:36.110Z,12.17
2019-04-07T11:25:18.336Z,13.20
2019-04-07T11:28:14.884Z,13.27
2019-04-07T11:31:11.142Z,10.20
2019-04-07T11:34:07.325Z,10.53
2019-04-07T11:37:01.762Z,11.20
2019-04-07T11:39:52.318Z,11.07
2019-04-07T11:42:49.022Z,10.77
2019-04-07T11:45:39.001Z,12.37
2019-04-07T11:48:17.637Z,10.63
2019-04-07T11:51:06.250Z,11.40
2019-04-07T11:53:56.672Z,11.07
2019-04-07T11:56:39.442Z,12.63
2019-04-07T11:59:26.340Z,11.97
2019-04-07T12:02:10.746Z,10.93
2019-04-07T12:05:03.298Z,11.03
2019-04-07T12:08:00.730Z,11.47
2019-04-07T12:10:58.502Z,11.10
2019-04-07T12:13:44.667Z,11.47
2019-04-07T12:17:02.433Z,11.60
2019-04-07T12:19:37.384Z,12.00
2019-04-07T12:22:23.812Z,11.80
2019-04-07T12:25:26.887Z,11.80
2019-04-07T12:28:24.658Z,12.07
2019-04-07T12:31:15.027Z,11.37
2019-04-07T12:34:05.020Z,12.67
2019-04-07T12:36:52.917Z,11.43
2019-04-07T12:39:38.645Z,11.30
2019-04-07T12:42:28.835Z,11.53
2019-04-07T12:45:25.429Z,11.60
2019-04-07T12:48:10.206Z,11.93
2019-04-07T12:50:56.334Z,11.40
2019-04-07T12:53:37.422Z,11.43
2019-04-07T12:56:15.820Z,11.70
2019-04-07T12:59:06.899Z,11.17
2019-04-07T13:02:19.190Z,11.53
2019-04-07T13:05:08.691Z,11.37
2019-04-07T13:07:51.343Z,13.07
2019-04-07T13:10:28.055Z,12.37
2019-04-07T13:13:27.762Z,12.23
2019-04-07T13:16:05.720Z,12.67
2019-04-07T13:18:45.624Z,13.30
2019-04-07T13:21:24.527Z,14.23
2019-04-07T13:24:30.177Z,13.70
2019-04-07T13:27:14.136Z,12.57
2019-04-07T13:30:15.014Z,13.13
2019-04-07T13:33:11.856Z,13.40
2019-04-07T13:35:53.477Z,13.47
2019-04-07T13:38:45.840Z,13.70
2019-04-07T13:41:44.906Z,13.47
2019-04-07T13:44:21.813Z,14.10
2019-04-07T13:47:07.255Z,14.43
2019-04-07T13:49:58.998Z,15.50
2019-04-07T13:52:35.908Z,15.07
2019-04-07T13:55:30.569Z,15.60
2019-04-07T13:58:18.627Z,14.73
2019-04-07T14:01:09.565Z,15.10
2019-04-07T14:04:00.087Z,14.77
2019-04-07T14:06:36.225Z,14.93
2019-04-07T14:09:27.198Z,14.30
2019-04-07T14:12:18.122Z,13.83
2019-04-07T14:14:59.207Z,13.80
2019-04-07T14:17:55.797Z,13.93
2019-04-07T14:20:44.823Z,13.63
2019-04-07T14:23:22.627Z,14.30
2019-04-07T14:26:25.828Z,13.10
2019-04-07T14:29:07.626Z,12.37
2019-04-07T14:31:57.639Z,12.93
2019-04-07T14:35:00.960Z,11.47
2019-04-07T14:37:41.839Z,11.27
2019-04-07T14:40:30.155Z,11.33
2019-04-07T14:43:19.827Z,11.87
2019-04-07T14:46:19.535Z,10.53
2019-04-07T14:49:05.498Z,9.77
2019-04-07T14:51:53.553Z,9.77
2019-04-07T14:54:56.615Z,10.20
2019-04-07T14:57:51.293Z,9.77
2019-04-07T15:00:48.997Z,10.63
2019-04-07T15:03:21.388Z,10.50
2019-04-07T15:05:56.409Z,9.60
2019-04-07T15:08:34.370Z,9.43
2019-04-07T15:11:26.983Z,9.43
2019-04-07T15:14:01.330Z,10.40
2019-04-07T15:16:31.685Z,10.37
2019-04-07T15:19:03.149Z,9.60
2019-04-07T15:21:34.377Z,9.53
2019-04-07T15:24:07.132Z,9.77
2019-04-07T15:26:38.930Z,9.37
2019-04-07T15:29:10.881Z,10.50
2019-04-07T15:31:42.759Z,10.03
2019-04-07T15:34:15.260Z,10.47
2019-04-07T15:36:48.414Z,10.37
2019-04-07T15:39:19.394Z,11.43
2019-04-07T15:41:51.016Z,11.97
2019-04-07T15:44:24.858Z,10.90
2019-04-07T15:46:56.536Z,11.03
2019-04-07T15:49:30.994Z,9.73
2019-04-07T15:52:04.661Z,9.63
2019-04-07T15:54:35.259Z,10.23
2019-04-07T15:57:07.019Z,9.47
2019-04-07T15:59:38.219Z,9.03
2019-04-07T16:02:11.188Z,8.87
2019-04-07T16:04:43.967Z,9.67
2019-04-07T16:07:18.363Z,9.63
2019-04-07T16:09:55.174Z,9.60
2019-04-07T16:12:22.994Z,9.90
2019-04-07T16:14:54.715Z,9.70
2019-04-07T16:17:26.433Z,9.87
2019-04-07T16:19:58.444Z,8.77
2019-04-07T16:22:29.720Z,8.73
2019-04-07T16:25:00.696Z,9.27
2019-04-07T16:27:32.996Z,8.97
2019-04-07T16:30:05.136Z,9.67
2019-04-07T16:32:37.620Z,9.23
2019-04-07T16:35:13.042Z,10.40
2019-04-07T16:37:43.804Z,9.80
2019-04-07T16:40:15.410Z,9.70
2019-04-07T16:43:01.271Z,9.33
2019-04-07T16:45:19.516Z,9.73
2019-04-07T16:47:51.247Z,9.10
2019-04-07T16:50:22.904Z,8.40
2019-04-07T16:52:55.097Z,9.47
2019-04-07T16:55:34.912Z,9.17
2019-04-07T16:58:06.470Z,8.90
2019-04-07T17:00:38.366Z,9.20
2019-04-07T17:03:10.113Z,8.77
2019-04-07T17:05:41.259Z,9.03
2019-04-07T17:08:12.843Z,8.47
2019-04-07T17:10:44.254Z,8.67
2019-04-07T17:13:20.506Z,8.60
2019-04-07T17:15:51.397Z,8.30
2019-04-07T17:18:39.166Z,8.43
2019-04-07T17:21:14.011Z,8.20
2019-04-07T17:23:46.190Z,7.93
2019-04-07T17:26:18.119Z,8.50
2019-04-07T17:28:50.025Z,7.97
2019-04-07T17:31:21.435Z,8.30
2019-04-07T17:33:52.580Z,7.23
2019-04-07T17:36:25.044Z,7.43
2019-04-07T17:39:14.422Z,7.23
2019-04-07T17:41:49.872Z,7.33
2019-04-07T17:44:37.047Z,7.77
2019-04-07T17:47:29.569Z,8.00
2019-04-07T17:50:18.072Z,7.43
2019-04-07T17:53:10.027Z,7.20
2019-04-07T17:56:07.529Z,7.83
2019-04-07T17:59:01.833Z,7.33
2019-04-07T18:01:44.247Z,6.97
2019-04-07T18:04:23.037Z,7.80
2019-04-07T18:07:12.335Z,6.93
2019-04-07T18:10:05.322Z,6.77
2019-04-07T18:12:49.898Z,7.47
2019-04-07T18:15:40.159Z,6.80
2019-04-07T18:18:24.067Z,6.83
2019-04-07T18:21:00.756Z,7.27
2019-04-07T18:23:38.282Z,7.10
2019-04-07T18:26:16.881Z,7.10
2019-04-07T18:28:59.844Z,7.73
2019-04-07T18:31:42.081Z,7.13
2019-04-07T18:34:32.141Z,7.63
2019-04-07T18:37:10.326Z,7.23
2019-04-07T18:40:01.735Z,7.03
2019-04-07T18:42:51.102Z,7.40
2019-04-07T18:45:36.347Z,7.65
2019-04-07T18:48:28.429Z,7.53
2019-04-07T18:51:17.776Z,7.30
2019-04-07T18:54:09.929Z,7.40
2019-04-07T18:57:01.439Z,7.43
2019-04-07T18:59:42.257Z,8.33
2019-04-07T19:02:26.667Z,8.25
2019-04-07T19:05:22.229Z,7.63
2019-04-07T19:08:02.708Z,8.80
2019-04-07T19:10:45.039Z,8.57
2019-04-07T19:13:37.717Z,8.38
2019-04-07T19:16:22.961Z,7.57
2019-04-07T19:19:08.572Z,8.03
2019-04-07T19:21:48.365Z,7.63
2019-04-07T19:24:42.827Z,8.50
2019-04-07T19:27:37.353Z,7.63
2019-04-07T19:30:29.128Z,7.77
2019-04-07T19:33:24.055Z,7.23
2019-04-07T19:36:12.165Z,7.97
2019-04-07T19:39:06.876Z,8.00
2019-04-07T19:41:47.131Z,7.70
2019-04-07T19:44:37.132Z,8.10
2019-04-07T19:47:15.078Z,8.57
2019-04-07T19:49:54.907Z,7.70
2019-04-07T19:52:44.199Z,8.13
2019-04-07T19:55:26.680Z,8.40
2019-04-07T19:58:10.406Z,8.40
2019-04-07T20:00:54.985Z,8.50
2019-04-07T20:03:40.519Z,7.97
2019-04-07T20:06:29.776Z,7.77
2019-04-07T20:09:30.115Z,8.20
2019-04-07T20:12:18.866Z,7.90
2019-04-07T20:15:08.108Z,8.17
2019-04-07T20:17:54.883Z,7.87
2019-04-07T20:20:40.575Z,8.07
2019-04-07T20:23:30.382Z,7.70
2019-04-07T20:26:18.616Z,7.80
2019-04-07T20:29:02.228Z,7.60
2019-04-07T20:31:51.616Z,7.93
2019-04-07T20:34:29.636Z,7.80
2019-04-07T20:37:19.203Z,7.90
2019-04-07T20:40:09.891Z,7.90
2019-04-07T20:43:10.135Z,8.33
2019-04-07T20:45:51.622Z,7.93
2019-04-07T20:48:38.875Z,7.87
2019-04-07T20:51:19.079Z,7.47
2019-04-07T20:54:10.639Z,8.73
2019-04-07T20:56:51.996Z,7.70
2019-04-07T20:59:50.450Z,7.63
2019-04-07T21:02:36.262Z,8.47
2019-04-07T21:05:28.342Z,8.27
2019-04-07T21:08:18.251Z,8.53
2019-04-07T21:11:15.164Z,8.00
2019-04-07T21:14:05.528Z,8.03
2019-04-07T21:16:57.864Z,7.77
2019-04-07T21:19:52.424Z,8.17
2019-04-07T21:22:33.519Z,8.90
2019-04-07T21:25:19.509Z,9.50
2019-04-07T21:27:54.985Z,8.03
2019-04-07T21:30:51.868Z,7.80
2019-04-07T21:33:34.590Z,8.37
2019-04-07T21:36:16.269Z,8.23
2019-04-07T21:38:58.297Z,7.83
2019-04-07T21:41:52.041Z,8.60
2019-04-07T21:44:30.535Z,9.37
2019-04-07T21:47:23.552Z,8.47
2019-04-07T21:50:07.525Z,9.57
2019-04-07T21:52:55.592Z,8.53
2019-04-07T21:55:45.701Z,9.30
2019-04-07T21:58:26.299Z,9.10
2019-04-07T22:01:08.033Z,9.83
2019-04-07T22:03:58.755Z,8.70
2019-04-07T22:06:53.476Z,9.87
2019-04-07T22:09:32.205Z,9.57
2019-04-07T22:12:03.481Z,9.53
2019-04-07T22:14:38.814Z,9.70
2019-04-07T22:17:08.104Z,12.13
2019-04-07T22:19:44.135Z,10.13
2019-04-07T22:22:11.875Z,10.53
2019-04-07T22:24:44.598Z,10.67
2019-04-07T22:27:20.396Z,9.63
2019-04-07T22:29:48.960Z,9.47
2019-04-07T22:32:22.149Z,9.70
2019-04-07T22:34:52.943Z,9.33
2019-04-07T22:37:23.856Z,10.03
2019-04-07T22:39:57.223Z,8.87
2019-04-07T22:42:27.607Z,10.17
2019-04-07T22:44:59.864Z,9.13
2019-04-07T22:47:31.606Z,9.60
2019-04-07T22:50:05.379Z,9.17
2019-04-07T22:52:36.979Z,9.80
2019-04-07T22:55:08.760Z,9.73
2019-04-07T22:57:41.067Z,10.03
2019-04-07T23:00:19.124Z,9.80
2019-04-07T23:02:52.062Z,9.20
2019-04-07T23:05:23.345Z,10.73
2019-04-07T23:07:54.754Z,9.67
2019-04-07T23:10:25.687Z,10.10
2019-04-07T23:12:57.285Z,9.53
2019-04-07T23:15:38.570Z,11.10
2019-04-07T23:18:03.211Z,10.27
2019-04-07T23:20:35.432Z,10.87
2019-04-07T23:23:06.957Z,10.73
2019-04-07T23:25:38.550Z,10.37
2019-04-07T23:28:10.292Z,10.43
2019-04-07T23:30:41.595Z,10.73
2019-04-07T23:33:12.679Z,10.37
2019-04-07T23:35:44.778Z,10.23
2019-04-07T23:38:16.132Z,10.87
2019-04-07T23:40:48.247Z,10.13
2019-04-07T23:43:19.711Z,9.70
2019-04-07T23:45:51.706Z,10.00
2019-04-07T23:48:22.933Z,9.73
2019-04-07T23:50:54.159Z,9.60
2019-04-07T23:54:02.249Z,9.90
2019-04-07T23:56:33.665Z,9.93
2019-04-07T23:59:06.155Z,10.80
